Time;durP1;ratioP1;P1;durP2;ratioP2;P2;SDS_P1;SDS_P2;PMS_P1;PMS_P2;Temp;Humidity;BMP_temperature;BMP_pressure;BME280_temperature;BME280_humidity;BME280_pressure;Samples;Min_cycle;Max_cycle;Signal;HPM_P1;HPM_P2
2022/03/16 00:00:13;;;;;;;64.70;41.20;;;10.10;75.30;;;;;;5026349;28;20195;-67
2022/03/16 00:02:46;;;;;;;63.63;43.87;;;10.10;75.20;;;;;;5023185;28;20202;-67
2022/03/16 00:05:13;;;;;;;62.73;42.57;;;10.20;75.10;;;;;;5026451;28;20221;-67
2022/03/16 00:07:42;;;;;;;61.13;41.03;;;10.20;75.00;;;;;;4995094;28;20258;-67
2022/03/16 00:10:11;;;;;;;57.27;41.23;;;10.20;74.90;;;;;;5029356;28;20203;-67
2022/03/16 00:12:40;;;;;;;57.60;41.53;;;10.30;74.90;;;;;;5030056;28;20277;-67
2022/03/16 00:15:07;;;;;;;49.67;39.27;;;10.20;74.60;;;;;;5019180;28;20236;-67
2022/03/16 00:17:34;;;;;;;57.03;39.63;;;10.30;74.40;;;;;;5026412;28;20239;-67
2022/03/16 00:20:02;;;;;;;53.50;38.90;;;10.30;74.40;;;;;;5019753;28;20207;-67
2022/03/16 00:22:29;;;;;;;55.20;40.23;;;10.30;74.30;;;;;;5033422;28;20208;-67
2022/03/16 00:24:56;;;;;;;57.87;40.13;;;10.30;74.30;;;;;;5015750;28;20205;-67
2022/03/16 00:27:23;;;;;;;56.60;39.93;;;10.30;74.40;;;;;;5020057;28;20219;-67
2022/03/16 00:29:50;;;;;;;52.13;38.80;;;10.30;74.40;;;;;;5021765;28;20208;-67
2022/03/16 00:32:17;;;;;;;58.63;40.83;;;10.30;74.30;;;;;;5006259;28;20335;-67
2022/03/16 00:34:44;;;;;;;54.93;38.80;;;10.30;74.40;;;;;;5007603;28;20239;-67
2022/03/16 00:37:12;;;;;;;55.27;38.77;;;10.20;74.50;;;;;;5025917;28;20650;-67
2022/03/16 00:39:39;;;;;;;52.80;38.83;;;10.20;74.50;;;;;;5008991;28;20556;-67
2022/03/16 00:42:07;;;;;;;53.47;39.60;;;10.20;74.60;;;;;;5001459;28;20288;-67
2022/03/16 00:44:34;;;;;;;54.80;38.53;;;10.20;74.60;;;;;;5022980;28;20215;-67
2022/03/16 00:47:05;;;;;;;58.17;39.00;;;10.20;74.60;;;;;;5014555;28;20252;-67
2022/03/16 00:49:33;;;;;;;52.73;37.27;;;10.20;74.50;;;;;;5032902;28;20259;-67
2022/03/16 00:52:00;;;;;;;52.00;37.73;;;10.20;74.50;;;;;;5007723;28;20225;-67
2022/03/16 00:54:30;;;;;;;50.83;38.00;;;10.20;74.50;;;;;;5016064;28;20199;-67
2022/03/16 00:57:01;;;;;;;57.43;39.13;;;10.20;74.40;;;;;;5031282;28;20210;-67
2022/03/16 00:59:28;;;;;;;53.57;38.87;;;10.20;74.30;;;;;;5000318;28;20224;-67
2022/03/16 01:01:55;;;;;;;54.37;38.77;;;10.20;74.10;;;;;;5004446;28;20243;-67
2022/03/16 01:04:23;;;;;;;53.73;37.80;;;10.30;74.00;;;;;;5005718;28;20218;-67
2022/03/16 01:06:53;;;;;;;53.40;38.87;;;10.30;73.90;;;;;;5022989;28;20227;-67
2022/03/16 01:09:20;;;;;;;53.80;37.77;;;10.30;73.90;;;;;;5023737;28;20679;-67
2022/03/16 01:11:48;;;;;;;53.43;38.97;;;10.30;73.90;;;;;;5025324;28;20207;-67
2022/03/16 01:14:15;;;;;;;48.63;36.97;;;10.20;73.80;;;;;;5011860;28;20221;-67
2022/03/16 01:16:42;;;;;;;58.27;38.87;;;10.30;73.60;;;;;;5011537;28;20200;-67
2022/03/16 01:19:14;;;;;;;55.07;37.37;;;10.30;73.60;;;;;;5017604;28;20207;-67
2022/03/16 01:21:42;;;;;;;51.70;36.60;;;10.30;73.50;;;;;;5019811;28;20209;-67
2022/03/16 01:24:09;;;;;;;50.27;36.20;;;10.20;73.40;;;;;;5002461;28;20298;-67
2022/03/16 01:26:36;;;;;;;48.13;34.97;;;10.30;73.40;;;;;;5017491;28;20725;-67
2022/03/16 01:29:04;;;;;;;54.20;38.03;;;10.30;73.40;;;;;;5017919;28;20231;-67
2022/03/16 01:31:31;;;;;;;49.90;36.73;;;10.30;73.50;;;;;;5024917;28;20662;-67
2022/03/16 01:33:58;;;;;;;52.00;37.07;;;10.30;73.50;;;;;;5008595;28;20291;-67
2022/03/16 01:36:25;;;;;;;58.43;39.47;;;10.30;73.50;;;;;;5010127;28;20211;-67
2022/03/16 01:38:52;;;;;;;52.87;38.23;;;10.30;73.30;;;;;;5029234;28;20210;-67
2022/03/16 01:41:20;;;;;;;50.90;37.70;;;10.30;73.40;;;;;;5013664;28;20225;-67
2022/03/16 01:43:56;;;;;;;64.33;39.23;;;10.30;73.50;;;;;;5035171;28;20296;-67
2022/03/16 01:46:23;;;;;;;55.50;38.67;;;10.30;73.50;;;;;;5036752;28;20615;-67
2022/03/16 01:48:51;;;;;;;53.60;38.93;;;10.30;73.50;;;;;;5022368;28;20235;-67
2022/03/16 01:51:19;;;;;;;53.87;38.43;;;10.30;73.60;;;;;;5033669;28;20254;-67
2022/03/16 01:53:46;;;;;;;55.67;37.83;;;10.30;73.60;;;;;;5024255;28;20206;-67
2022/03/16 01:56:16;;;;;;;53.20;37.93;;;10.30;73.60;;;;;;5004426;28;20212;-67
2022/03/16 01:58:43;;;;;;;51.80;39.57;;;10.30;73.60;;;;;;5025238;28;20670;-67
2022/03/16 02:01:11;;;;;;;50.47;37.57;;;10.30;73.60;;;;;;5009111;28;20282;-67
2022/03/16 02:03:38;;;;;;;56.13;40.20;;;10.30;73.60;;;;;;5025338;28;20210;-68
2022/03/16 02:06:07;;;;;;;49.37;38.53;;;10.30;73.70;;;;;;5029465;28;20320;-68
2022/03/16 02:08:36;;;;;;;54.27;38.77;;;10.40;73.80;;;;;;5027745;28;20664;-68
2022/03/16 02:11:03;;;;;;;60.33;41.00;;;10.40;73.90;;;;;;5033330;28;20210;-68
2022/03/16 02:13:34;;;;;;;59.67;41.13;;;10.40;73.90;;;;;;5029318;28;20203;-68
2022/03/16 02:16:02;;;;;;;53.33;37.37;;;10.40;73.80;;;;;;5027485;28;20706;-68
2022/03/16 02:18:29;;;;;;;54.77;39.87;;;10.40;73.90;;;;;;5008556;28;20277;-68
2022/03/16 02:20:59;;;;;;;52.47;39.37;;;10.40;73.90;;;;;;5004243;28;20575;-68
2022/03/16 02:23:26;;;;;;;53.80;37.87;;;10.30;73.80;;;;;;5019352;28;20222;-67
2022/03/16 02:25:54;;;;;;;56.13;40.50;;;10.30;73.80;;;;;;5018720;28;20654;-67
2022/03/16 02:28:22;;;;;;;51.87;37.83;;;10.30;73.90;;;;;;5019540;28;20227;-67
2022/03/16 02:30:50;;;;;;;54.30;39.10;;;10.40;74.00;;;;;;5020799;28;20217;-67
2022/03/16 02:33:17;;;;;;;49.20;37.87;;;10.40;73.90;;;;;;5022506;28;20200;-67
2022/03/16 02:35:45;;;;;;;55.93;38.90;;;10.40;73.90;;;;;;5024709;28;20230;-67
2022/03/16 02:38:13;;;;;;;55.77;38.33;;;10.40;73.90;;;;;;5025710;28;20240;-67
2022/03/16 02:40:40;;;;;;;52.53;38.03;;;10.40;73.90;;;;;;5024668;28;20259;-68
2022/03/16 02:43:08;;;;;;;50.57;39.37;;;10.40;73.90;;;;;;5028174;28;20205;-68
2022/03/16 02:45:35;;;;;;;57.27;39.73;;;10.40;73.90;;;;;;5028501;28;20212;-68
2022/03/16 02:48:02;;;;;;;52.20;39.07;;;10.40;73.80;;;;;;5028496;28;20550;-67
2022/03/16 02:50:29;;;;;;;57.00;38.90;;;10.40;73.80;;;;;;5033077;28;20221;-67
2022/03/16 02:52:57;;;;;;;56.60;39.83;;;10.40;73.70;;;;;;5016770;28;20199;-67
2022/03/16 02:55:46;;;;;;;59.83;38.23;;;10.40;73.70;;;;;;5017138;28;20201;-67
2022/03/16 02:58:15;;;;;;;49.43;37.30;;;10.40;73.70;;;;;;5036086;28;20211;-67
2022/03/16 03:00:43;;;;;;;56.67;40.80;;;10.40;73.70;;;;;;5017499;28;20311;-67
2022/03/16 03:03:10;;;;;;;52.50;39.63;;;10.40;73.70;;;;;;5033353;28;20214;-67
2022/03/16 03:05:38;;;;;;;57.60;39.00;;;10.40;73.70;;;;;;5031813;28;20215;-67
2022/03/16 03:08:05;;;;;;;58.67;37.67;;;10.30;73.60;;;;;;5029674;28;20531;-67
2022/03/16 03:10:32;;;;;;;55.77;39.27;;;10.40;73.70;;;;;;5028651;28;20226;-67
2022/03/16 03:12:59;;;;;;;53.13;39.83;;;10.30;73.60;;;;;;5010023;28;20313;-67
2022/03/16 03:15:26;;;;;;;53.50;40.03;;;10.30;73.60;;;;;;5025589;28;20270;-67
2022/03/16 03:17:53;;;;;;;57.50;40.43;;;10.30;73.70;;;;;;5010237;28;20226;-67
2022/03/16 03:20:20;;;;;;;52.73;40.30;;;10.20;73.70;;;;;;5031047;28;20208;-67
2022/03/16 03:22:47;;;;;;;56.03;40.43;;;10.10;73.70;;;;;;5022295;28;20260;-67
2022/03/16 03:25:15;;;;;;;55.07;41.03;;;10.10;73.80;;;;;;5018225;28;20210;-67
2022/03/16 03:27:42;;;;;;;54.90;38.73;;;10.10;73.90;;;;;;5014198;28;20197;-67
2022/03/16 03:30:10;;;;;;;58.20;39.70;;;10.00;73.90;;;;;;5017785;28;20221;-67
2022/03/16 03:32:37;;;;;;;55.03;39.87;;;10.00;73.90;;;;;;5019132;28;20626;-67
2022/03/16 03:35:06;;;;;;;56.07;39.77;;;9.90;74.00;;;;;;5023246;28;20654;-67
2022/03/16 03:37:36;;;;;;;58.07;41.30;;;9.90;74.20;;;;;;5019907;28;20535;-67
2022/03/16 03:40:04;;;;;;;55.07;40.80;;;9.80;74.20;;;;;;5023739;28;20656;-67
2022/03/16 03:42:31;;;;;;;52.60;39.13;;;9.80;74.40;;;;;;5024893;28;20215;-67
2022/03/16 03:44:59;;;;;;;54.70;39.53;;;9.80;74.50;;;;;;5027198;28;20640;-67
2022/03/16 03:47:26;;;;;;;55.70;39.60;;;9.70;74.60;;;;;;5007116;28;20209;-67
2022/03/16 03:49:53;;;;;;;53.70;38.67;;;9.70;74.80;;;;;;5005744;28;20227;-67
2022/03/16 03:52:20;;;;;;;54.03;40.47;;;9.70;75.10;;;;;;5022383;28;20207;-67
2022/03/16 03:54:47;;;;;;;60.87;41.43;;;9.70;75.30;;;;;;5031863;28;20258;-67
2022/03/16 03:57:14;;;;;;;55.87;40.23;;;9.60;75.40;;;;;;5017963;28;20271;-67
2022/03/16 03:59:41;;;;;;;57.70;39.23;;;9.60;75.60;;;;;;5016795;28;20208;-67
2022/03/16 04:02:08;;;;;;;54.40;40.10;;;9.60;75.70;;;;;;5014175;28;20252;-67
2022/03/16 04:04:35;;;;;;;57.03;40.97;;;9.60;75.90;;;;;;5019118;28;20215;-67
2022/03/16 04:07:02;;;;;;;57.47;40.43;;;9.60;76.00;;;;;;5020638;28;20238;-67
2022/03/16 04:09:29;;;;;;;55.50;39.13;;;9.60;76.10;;;;;;5021878;28;20219;-67
2022/03/16 04:11:56;;;;;;;58.80;41.30;;;9.60;76.00;;;;;;5023998;28;20614;-67
2022/03/16 04:14:23;;;;;;;59.53;41.50;;;9.70;76.10;;;;;;5025251;28;20238;-67
2022/03/16 04:16:50;;;;;;;56.50;40.50;;;9.60;76.10;;;;;;5025237;28;20204;-67
2022/03/16 04:19:17;;;;;;;61.03;40.57;;;9.60;76.10;;;;;;5028000;28;20200;-67
2022/03/16 04:21:44;;;;;;;61.73;40.13;;;9.60;76.70;;;;;;5029958;28;20203;-67
2022/03/16 04:24:11;;;;;;;58.90;40.70;;;9.60;76.00;;;;;;5031328;28;20217;-67
2022/03/16 04:26:38;;;;;;;58.70;39.10;;;9.60;75.90;;;;;;5015336;28;20203;-67
2022/03/16 04:29:05;;;;;;;58.87;39.57;;;9.60;75.90;;;;;;5033895;28;20219;-67
2022/03/16 04:31:32;;;;;;;60.60;42.20;;;9.60;76.00;;;;;;5035306;28;20533;-67
2022/03/16 04:33:59;;;;;;;61.60;41.97;;;9.50;76.00;;;;;;5027220;28;20196;-67
2022/03/16 04:36:29;;;;;;;60.40;40.97;;;9.50;76.00;;;;;;5018123;28;20203;-67
2022/03/16 04:38:57;;;;;;;56.17;40.33;;;9.50;76.10;;;;;;5028313;28;20200;-67
2022/03/16 04:41:24;;;;;;;56.60;39.87;;;9.40;76.00;;;;;;5019527;28;20214;-67
2022/03/16 04:43:51;;;;;;;61.23;40.43;;;9.40;76.10;;;;;;5023359;28;20703;-67
2022/03/16 04:46:18;;;;;;;58.67;40.13;;;9.40;76.10;;;;;;5025083;28;20525;-67
2022/03/16 04:48:45;;;;;;;54.87;38.43;;;9.40;76.20;;;;;;5022847;28;20213;-67
2022/03/16 04:51:12;;;;;;;63.60;41.53;;;9.40;76.30;;;;;;5022335;28;20219;-67
2022/03/16 04:53:39;;;;;;;60.20;41.13;;;9.40;76.30;;;;;;5012184;28;20215;-67
2022/03/16 04:56:07;;;;;;;57.47;40.10;;;9.40;76.30;;;;;;5031275;28;20203;-67
2022/03/16 04:58:34;;;;;;;58.33;39.67;;;9.40;76.40;;;;;;5015583;28;20613;-67
2022/03/16 05:01:01;;;;;;;56.93;40.50;;;9.40;76.50;;;;;;5034083;28;20248;-67
2022/03/16 05:03:29;;;;;;;53.20;39.80;;;9.40;76.50;;;;;;5017155;28;20212;-67
2022/03/16 05:05:56;;;;;;;60.47;41.17;;;9.40;76.50;;;;;;5015147;28;20199;-67
2022/03/16 05:08:23;;;;;;;58.60;40.20;;;9.50;76.50;;;;;;5017026;28;20214;-67
2022/03/16 05:10:50;;;;;;;58.27;40.17;;;9.50;76.40;;;;;;5020940;28;20550;-67
2022/03/16 05:13:17;;;;;;;56.43;38.30;;;9.50;76.30;;;;;;5021877;28;20590;-67
2022/03/16 05:15:44;;;;;;;52.67;39.97;;;9.60;76.20;;;;;;5023582;28;20204;-67
2022/03/16 05:18:11;;;;;;;58.40;39.83;;;9.60;76.10;;;;;;5006701;28;20662;-67
2022/03/16 05:20:38;;;;;;;57.47;39.33;;;9.50;75.80;;;;;;5023575;28;20199;-67
2022/03/16 05:23:05;;;;;;;54.30;37.97;;;9.60;75.80;;;;;;5009303;28;20204;-67
2022/03/16 05:25:32;;;;;;;58.77;40.57;;;9.50;75.60;;;;;;5029914;28;20556;-67
2022/03/16 05:27:59;;;;;;;56.80;39.50;;;9.50;75.60;;;;;;5022189;28;20333;-67
2022/03/16 05:30:27;;;;;;;54.47;39.33;;;9.50;75.80;;;;;;5017277;28;20227;-67
2022/03/16 05:32:57;;;;;;;55.07;37.67;;;9.50;75.80;;;;;;4998263;28;20529;-67
2022/03/16 05:35:24;;;;;;;56.33;38.67;;;9.50;75.90;;;;;;5016275;28;20196;-67
2022/03/16 05:37:51;;;;;;;53.53;36.70;;;9.40;75.90;;;;;;5017844;28;20209;-67
2022/03/16 05:40:18;;;;;;;61.40;36.83;;;9.40;75.80;;;;;;5027372;28;20567;-67
2022/03/16 05:42:46;;;;;;;56.33;37.77;;;9.40;75.70;;;;;;5029105;28;20213;-67
2022/03/16 05:45:16;;;;;;;58.47;39.73;;;9.30;75.80;;;;;;5009900;28;20223;-67
2022/03/16 05:47:43;;;;;;;53.93;37.07;;;9.30;75.80;;;;;;5023986;28;20211;-67
2022/03/16 05:50:10;;;;;;;59.03;37.20;;;9.30;75.80;;;;;;5025140;28;20230;-67
2022/03/16 05:52:37;;;;;;;54.33;36.37;;;9.30;75.90;;;;;;5018542;28;20213;-67
2022/03/16 05:55:07;;;;;;;54.80;38.00;;;9.30;75.80;;;;;;5020229;28;20223;-67
2022/03/16 05:57:37;;;;;;;50.10;36.30;;;9.30;75.80;;;;;;5002505;28;20210;-67
2022/03/16 06:00:05;;;;;;;60.50;36.87;;;9.30;75.80;;;;;;5014779;28;20287;-67
2022/03/16 06:02:32;;;;;;;53.30;38.43;;;9.30;75.80;;;;;;5009884;28;20258;-67
2022/03/16 06:04:59;;;;;;;53.13;35.67;;;9.30;75.90;;;;;;4995813;28;20228;-67
2022/03/16 06:07:26;;;;;;;55.87;36.70;;;9.40;75.90;;;;;;4998889;28;20204;-67
2022/03/16 06:09:54;;;;;;;53.23;35.57;;;9.40;75.80;;;;;;5010202;28;20231;-67
2022/03/16 06:12:20;;;;;;;52.83;38.37;;;9.50;76.10;;;;;;4999679;28;20210;-67
2022/03/16 06:14:48;;;;;;;51.17;35.97;;;9.50;76.20;;;;;;5022572;28;20225;-67
2022/03/16 06:17:15;;;;;;;54.43;37.57;;;9.60;75.90;;;;;;5009822;28;20207;-67
2022/03/16 06:19:42;;;;;;;51.57;35.60;;;9.60;75.70;;;;;;5025580;28;20205;-68
2022/03/16 06:22:09;;;;;;;55.00;35.67;;;9.70;75.40;;;;;;5009432;28;20263;-68
2022/03/16 06:24:36;;;;;;;60.07;38.57;;;9.80;75.10;;;;;;5007976;28;20224;-68
2022/03/16 06:27:03;;;;;;;49.67;35.13;;;9.80;74.80;;;;;;5024796;28;20240;-68
2022/03/16 06:29:30;;;;;;;52.87;35.90;;;9.90;74.60;;;;;;5017524;28;20218;-68
2022/03/16 06:31:57;;;;;;;48.83;36.27;;;10.00;74.40;;;;;;5000600;28;20247;-67
2022/03/16 06:34:25;;;;;;;50.97;36.97;;;10.10;74.30;;;;;;4999157;28;20281;-67
2022/03/16 06:36:53;;;;;;;49.97;35.37;;;10.10;74.20;;;;;;4998725;28;20202;-67
2022/03/16 06:39:20;;;;;;;54.13;37.80;;;10.20;74.20;;;;;;5015157;28;20215;-67
2022/03/16 06:41:47;;;;;;;52.00;35.57;;;10.30;74.00;;;;;;5000770;28;20225;-67
2022/03/16 06:44:14;;;;;;;52.83;36.50;;;10.40;73.90;;;;;;5001416;28;20215;-67
2022/03/16 06:46:41;;;;;;;54.60;35.80;;;10.50;73.90;;;;;;5008183;28;20201;-67
2022/03/16 06:49:08;;;;;;;50.37;36.07;;;10.50;73.70;;;;;;5006112;28;20202;-67
2022/03/16 06:51:35;;;;;;;66.73;38.57;;;10.60;73.50;;;;;;5006863;28;20287;-67
2022/03/16 06:54:02;;;;;;;62.70;37.40;;;10.70;73.20;;;;;;5008215;28;20272;-67
2022/03/16 06:56:29;;;;;;;53.63;36.43;;;10.80;73.00;;;;;;5004072;28;20212;-67
2022/03/16 06:58:56;;;;;;;70.57;39.33;;;10.90;72.80;;;;;;5003052;28;20197;-67
2022/03/16 07:01:23;;;;;;;48.53;35.60;;;11.00;72.80;;;;;;5011136;28;20255;-67
2022/03/16 07:03:50;;;;;;;60.63;38.40;;;11.10;72.60;;;;;;5033158;28;20217;-67
2022/03/16 07:06:18;;;;;;;51.43;36.77;;;11.20;72.40;;;;;;5027671;28;20553;-67
2022/03/16 07:08:46;;;;;;;50.43;36.97;;;11.30;72.10;;;;;;5017468;28;20214;-67
2022/03/16 07:11:16;;;;;;;50.03;35.37;;;11.40;71.80;;;;;;5018861;28;20300;-67
2022/03/16 07:14:30;;;;;;;48.43;35.07;;;11.50;71.60;;;;;;5031941;28;20200;-67
2022/03/16 07:16:30;;;;;;;49.80;34.67;;;11.60;71.40;;;;;;5024222;28;20624;-67
2022/03/16 07:18:57;;;;;;;55.33;34.37;;;11.70;71.10;;;;;;5029154;28;20214;-67
2022/03/16 07:21:24;;;;;;;53.10;35.67;;;11.80;71.00;;;;;;5028078;28;20209;-67
2022/03/16 07:23:51;;;;;;;48.97;35.80;;;11.90;70.80;;;;;;5025138;28;20234;-67
2022/03/16 07:26:18;;;;;;;52.90;36.53;;;12.00;70.70;;;;;;5022997;28;20220;-67
2022/03/16 07:28:45;;;;;;;55.17;36.93;;;12.00;70.50;;;;;;5022215;28;20290;-67
2022/03/16 07:31:12;;;;;;;49.07;33.97;;;12.10;70.30;;;;;;5021193;28;20272;-68
2022/03/16 07:33:40;;;;;;;49.63;32.87;;;12.10;70.10;;;;;;5028960;28;20636;-68
2022/03/16 07:36:07;;;;;;;50.60;35.80;;;12.20;70.00;;;;;;5012903;28;20201;-68
2022/03/16 07:38:34;;;;;;;43.83;34.43;;;12.20;69.80;;;;;;5016859;28;20210;-68
2022/03/16 07:41:02;;;;;;;56.63;34.60;;;12.30;69.80;;;;;;5000008;28;20219;-68
2022/03/16 07:43:30;;;;;;;46.97;33.33;;;12.30;69.80;;;;;;5018930;28;20208;-68
2022/03/16 07:45:58;;;;;;;47.60;33.47;;;12.40;69.60;;;;;;5017375;28;20214;-68
2022/03/16 07:48:26;;;;;;;47.87;35.43;;;12.50;69.60;;;;;;5028166;28;20218;-68
2022/03/16 07:50:53;;;;;;;49.40;33.83;;;12.50;69.50;;;;;;5028728;28;20647;-68
2022/03/16 07:53:20;;;;;;;46.17;32.83;;;12.60;69.40;;;;;;5025619;28;20213;-68
2022/03/16 07:55:49;;;;;;;43.93;34.30;;;12.70;69.30;;;;;;5023954;28;20217;-68
2022/03/16 07:58:16;;;;;;;48.20;34.63;;;12.80;69.00;;;;;;5026089;28;20198;-68
2022/03/16 08:00:43;;;;;;;46.03;33.80;;;12.80;68.80;;;;;;5028266;28;20304;-68
2022/03/16 08:03:10;;;;;;;47.30;33.13;;;12.90;68.60;;;;;;5016870;28;20671;-68
2022/03/16 08:05:39;;;;;;;51.83;34.83;;;13.00;68.60;;;;;;5004979;28;20641;-68
2022/03/16 08:08:06;;;;;;;52.43;35.47;;;13.10;68.50;;;;;;5033944;28;20640;-68
2022/03/16 08:10:33;;;;;;;51.97;34.70;;;13.10;68.30;;;;;;5034745;28;20223;-68
2022/03/16 08:13:00;;;;;;;46.80;31.93;;;13.20;68.20;;;;;;5016171;28;20213;-68
2022/03/16 08:15:27;;;;;;;48.47;33.70;;;13.30;68.10;;;;;;5031799;28;20202;-68
2022/03/16 08:17:54;;;;;;;44.73;33.07;;;13.40;67.80;;;;;;5022495;28;20203;-68
2022/03/16 08:20:21;;;;;;;47.07;33.47;;;13.50;67.70;;;;;;5021893;28;20214;-68
2022/03/16 08:22:51;;;;;;;43.90;32.87;;;13.60;67.50;;;;;;5028000;28;20197;-68
2022/03/16 08:25:20;;;;;;;51.27;33.57;;;13.80;67.40;;;;;;5022459;28;20206;-68
2022/03/16 08:27:48;;;;;;;44.60;32.87;;;13.90;67.40;;;;;;5023133;28;20208;-68
2022/03/16 08:30:16;;;;;;;47.97;32.27;;;14.00;67.00;;;;;;5022543;28;20257;-68
2022/03/16 08:32:43;;;;;;;44.43;34.07;;;14.10;66.50;;;;;;5021085;28;20268;-68
2022/03/16 08:35:11;;;;;;;47.03;32.70;;;14.20;66.20;;;;;;5019910;28;20224;-68
2022/03/16 08:37:38;;;;;;;44.20;32.83;;;14.30;66.00;;;;;;5014735;28;20202;-68
2022/03/16 08:40:07;;;;;;;42.83;31.57;;;14.40;66.00;;;;;;5015474;28;20233;-68
2022/03/16 08:42:34;;;;;;;38.63;29.07;;;14.50;65.60;;;;;;5015800;28;20214;-68
2022/03/16 08:45:02;;;;;;;42.77;31.37;;;14.60;65.10;;;;;;5017224;28;20202;-68
2022/03/16 08:47:29;;;;;;;41.20;30.40;;;14.70;64.80;;;;;;5019813;28;20853;-68
2022/03/16 08:49:56;;;;;;;41.57;30.67;;;14.80;64.60;;;;;;5029971;28;20811;-68
2022/03/16 08:52:23;;;;;;;41.33;30.50;;;14.90;64.20;;;;;;5028479;28;20242;-68
2022/03/16 08:54:50;;;;;;;42.07;30.83;;;15.00;63.90;;;;;;5024875;28;20272;-68
2022/03/16 08:57:18;;;;;;;45.13;31.40;;;15.10;64.00;;;;;;5024978;28;20207;-68
2022/03/16 08:59:45;;;;;;;46.57;30.40;;;15.20;63.90;;;;;;5025231;28;20223;-68
2022/03/16 09:02:12;;;;;;;41.97;31.90;;;15.30;63.70;;;;;;5027079;28;20246;-68
2022/03/16 09:04:39;;;;;;;43.80;32.43;;;15.40;63.80;;;;;;5011955;28;20629;-68
2022/03/16 09:07:06;;;;;;;49.47;32.80;;;15.40;63.60;;;;;;5030863;28;20207;-68
2022/03/16 09:09:39;;;;;;;43.93;33.13;;;15.50;63.50;;;;;;5015933;28;20290;-68
2022/03/16 09:12:10;;;;;;;47.17;31.00;;;15.60;63.30;;;;;;5013349;28;20236;-68
2022/03/16 09:14:40;;;;;;;43.40;31.80;;;15.60;63.10;;;;;;5015608;28;20294;-68
2022/03/16 09:17:10;;;;;;;43.97;31.53;;;15.60;62.80;;;;;;5022139;28;20203;-68
2022/03/16 09:19:38;;;;;;;43.40;29.03;;;15.70;62.90;;;;;;5013213;28;20213;-68
2022/03/16 09:22:05;;;;;;;41.73;28.57;;;15.70;62.30;;;;;;5029019;28;20301;-68
2022/03/16 09:24:32;;;;;;;41.17;28.80;;;15.70;61.00;;;;;;5009305;28;20210;-68
2022/03/16 09:27:01;;;;;;;45.67;30.03;;;15.60;60.80;;;;;;5025271;28;20208;-68
2022/03/16 09:29:29;;;;;;;45.97;30.77;;;15.60;61.40;;;;;;5023918;28;20609;-68
2022/03/16 09:32:05;;;;;;;44.67;28.50;;;15.70;62.30;;;;;;5024917;28;20313;-68
2022/03/16 09:34:33;;;;;;;39.03;28.30;;;15.70;60.70;;;;;;5024169;28;20211;-68
2022/03/16 09:37:00;;;;;;;42.00;27.70;;;15.80;61.30;;;;;;5012358;28;20278;-68
2022/03/16 09:39:27;;;;;;;41.37;28.57;;;15.90;61.60;;;;;;5030830;28;20210;-68
2022/03/16 09:41:56;;;;;;;40.30;29.87;;;16.00;60.60;;;;;;5031748;28;20624;-68
2022/03/16 09:44:24;;;;;;;41.27;29.13;;;16.10;60.60;;;;;;5033917;28;20221;-68
2022/03/16 09:46:54;;;;;;;44.13;30.00;;;16.20;59.90;;;;;;5029422;28;20546;-68
2022/03/16 09:49:22;;;;;;;42.53;29.20;;;16.30;60.00;;;;;;5014070;28;20206;-68
2022/03/16 09:51:50;;;;;;;36.90;29.00;;;16.40;59.60;;;;;;5032821;28;20313;-68
2022/03/16 09:54:17;;;;;;;39.50;28.83;;;16.40;59.50;;;;;;5030848;28;20618;-68
2022/03/16 09:56:45;;;;;;;40.40;28.00;;;16.50;60.30;;;;;;5023930;28;20215;-68
2022/03/16 09:59:12;;;;;;;37.23;28.17;;;16.60;59.40;;;;;;5027728;28;20203;-68
2022/03/16 10:01:39;;;;;;;33.90;25.70;;;16.70;60.30;;;;;;5028933;28;20290;-68
2022/03/16 10:04:06;;;;;;;38.30;28.47;;;16.90;60.20;;;;;;5030492;28;20242;-68
2022/03/16 10:06:40;;;;;;;31.47;27.10;;;17.00;58.70;;;;;;5031495;28;20216;-68
2022/03/16 10:15:10;;;;;;;37.43;27.30;;;17.00;59.10;;;;;;5018745;28;20206;-68
2022/03/16 10:17:45;;;;;;;36.30;26.03;;;17.00;58.70;;;;;;5032873;28;20199;-68
2022/03/16 10:20:26;;;;;;;33.33;25.33;;;17.00;59.20;;;;;;5017213;28;20416;-68
2022/03/16 10:23:07;;;;;;;39.03;26.83;;;17.20;59.70;;;;;;5021727;28;20265;-68
2022/03/16 10:25:54;;;;;;;34.70;26.63;;;17.30;59.20;;;;;;5025170;28;20207;-68
2022/03/16 10:28:23;;;;;;;39.57;27.57;;;17.40;58.40;;;;;;5029820;28;20208;-68
2022/03/16 10:31:06;;;;;;;33.73;25.37;;;17.50;58.30;;;;;;5027063;28;20642;-68
2022/03/16 10:33:50;;;;;;;34.40;26.73;;;17.70;57.80;;;;;;5027354;28;20577;-68
2022/03/16 10:36:20;;;;;;;34.93;25.63;;;17.80;58.20;;;;;;5024146;28;20204;-68
2022/03/16 10:38:51;;;;;;;32.67;24.83;;;18.00;57.90;;;;;;5022910;28;20235;-68
2022/03/16 10:46:57;;;;;;;33.23;25.40;;;18.30;56.10;;;;;;5023921;28;20240;-68
2022/03/16 10:49:30;;;;;;;34.50;26.10;;;18.40;56.50;;;;;;5018780;28;20586;-68
2022/03/16 10:52:07;;;;;;;30.23;24.03;;;18.50;56.80;;;;;;5016883;28;20231;-68
2022/03/16 10:54:36;;;;;;;35.67;26.73;;;18.70;56.50;;;;;;5021750;28;20215;-68
2022/03/16 10:57:12;;;;;;;31.60;24.30;;;18.80;55.50;;;;;;5028914;28;20458;-68
2022/03/16 10:59:42;;;;;;;30.10;24.80;;;18.90;54.40;;;;;;5023417;28;20207;-68
2022/03/16 11:02:14;;;;;;;32.50;24.87;;;19.00;54.30;;;;;;5024268;28;20241;-68
2022/03/16 11:04:47;;;;;;;29.53;23.27;;;19.00;53.70;;;;;;5025783;28;20294;-68
2022/03/16 11:07:14;;;;;;;30.73;21.40;;;18.90;54.20;;;;;;5012050;28;20658;-68
2022/03/16 11:09:41;;;;;;;29.73;23.93;;;18.90;54.00;;;;;;5030710;28;20221;-68
2022/03/16 11:15:05;;;;;;;31.70;24.43;;;19.00;54.60;;;;;;5019258;28;20203;-68
2022/03/16 11:17:35;;;;;;;28.83;23.03;;;19.00;54.10;;;;;;5022239;28;20207;-68
2022/03/16 11:20:07;;;;;;;27.47;22.17;;;19.20;53.90;;;;;;5018391;28;20212;-68
2022/03/16 11:26:01;;;;;;;28.93;21.10;;;19.20;54.00;;;;;;5016005;28;20575;-68
2022/03/16 11:29:00;;;;;;;31.80;23.60;;;19.40;53.70;;;;;;5022588;28;20625;-68
2022/03/16 11:31:32;;;;;;;31.70;24.73;;;19.40;52.50;;;;;;5023877;28;20224;-68
2022/03/16 11:34:08;;;;;;;31.33;23.53;;;19.40;53.50;;;;;;5026244;28;20201;-68
2022/03/16 11:36:40;;;;;;;27.53;21.33;;;19.60;53.20;;;;;;5026244;28;20524;-68
2022/03/16 11:39:15;;;;;;;25.87;22.00;;;19.70;52.70;;;;;;5026956;28;20204;-68
2022/03/16 11:41:57;;;;;;;25.50;19.53;;;19.70;53.00;;;;;;5029838;28;20228;-68
2022/03/16 11:44:25;;;;;;;23.90;18.57;;;19.90;52.80;;;;;;5032412;28;20225;-68
2022/03/16 11:47:09;;;;;;;26.83;19.63;;;20.00;52.50;;;;;;5032708;28;20588;-68
2022/03/16 11:49:41;;;;;;;27.80;20.47;;;20.20;51.50;;;;;;5024215;28;20226;-68
2022/03/16 11:52:08;;;;;;;29.40;20.07;;;20.10;50.60;;;;;;5017281;28;20231;-68
2022/03/16 11:54:47;;;;;;;28.23;20.73;;;20.10;51.60;;;;;;5018967;28;20194;-68
2022/03/16 11:57:49;;;;;;;25.67;18.97;;;20.20;51.80;;;;;;5031419;28;20216;-68
2022/03/16 12:00:17;;;;;;;21.37;16.97;;;20.30;51.90;;;;;;4998984;28;20208;-68
2022/03/16 12:02:58;;;;;;;22.60;16.93;;;20.50;51.40;;;;;;5023191;28;20219;-68
2022/03/16 12:05:27;;;;;;;24.03;18.10;;;20.60;51.00;;;;;;5023927;28;20275;-69
2022/03/16 12:08:14;;;;;;;21.50;18.57;;;20.70;50.50;;;;;;5003711;28;20214;-67
2022/03/16 12:12:50;;;;;;;26.13;19.93;;;20.70;50.30;;;;;;5019807;28;20234;-67
2022/03/16 12:13:45;;;;;;;23.17;18.90;;;20.70;50.30;;;;;;5003335;28;20215;-67
2022/03/16 12:16:18;;;;;;;27.50;20.47;;;20.80;50.30;;;;;;5014497;28;20655;-67
2022/03/16 12:18:47;;;;;;;27.37;21.00;;;20.80;48.80;;;;;;5017334;28;20203;-67
2022/03/16 12:21:14;;;;;;;30.37;19.97;;;20.60;49.50;;;;;;5034101;28;20213;-67
2022/03/16 12:23:49;;;;;;;23.20;19.30;;;20.60;49.90;;;;;;5033626;28;20235;-67
2022/03/16 12:26:28;;;;;;;16.50;14.40;;;20.40;50.10;;;;;;4998975;28;20264;-67
2022/03/16 12:29:05;;;;;;;17.47;14.27;;;20.30;49.10;;;;;;5030075;28;20210;-67
2022/03/16 12:31:34;;;;;;;18.83;14.83;;;20.30;50.30;;;;;;5024092;28;20313;-68
2022/03/16 12:34:01;;;;;;;17.03;13.87;;;20.30;50.30;;;;;;5025813;28;20214;-67
2022/03/16 12:36:31;;;;;;;19.77;15.77;;;20.40;49.80;;;;;;5025279;28;20241;-67
2022/03/16 12:39:16;;;;;;;19.17;14.47;;;20.50;50.10;;;;;;5025338;28;20214;-67
2022/03/16 12:44:42;;;;;;;20.00;15.30;;;20.70;49.10;;;;;;5006039;28;20744;-67
2022/03/16 12:47:22;;;;;;;19.83;15.73;;;20.60;48.00;;;;;;5019962;28;20210;-67
2022/03/16 12:49:50;;;;;;;21.47;16.83;;;20.50;49.10;;;;;;5015729;28;20207;-67
2022/03/16 12:52:18;;;;;;;22.43;17.00;;;20.40;48.80;;;;;;5034345;28;20249;-67
2022/03/16 12:54:45;;;;;;;23.23;17.80;;;20.30;49.80;;;;;;5033669;28;20993;-67
2022/03/16 12:57:15;;;;;;;21.80;17.67;;;20.30;49.70;;;;;;5032069;28;20206;-67